Terminal Aerodrome Forecast
Issued by NWS

Home | Current Version | Previous Version | Text Only | Print | Product List | Glossary On
Versions: 1 2 3 4 5 6 7 8 9 10 11 12 13 14 15 16 17 18
000
FTUS46 KSEW 301700
TAFPAE
TAF
KPAE 301720Z 3018/3118 18008KT P6SM SCT012 OVC025
      TEMPO 3018/3022 5SM -RA BR BKN012 OVC020
     FM302200 20008KT P6SM VCSH BKN035 BKN060
     FM311000 16008KT P6SM BKN025 OVC045
     FM311700 16008KT P6SM SCT025 BKN050 BKN120=

USA.gov is the U.S. government's official web portal to all federal, state and local government web resources and services.